createdAt,value
2022-08-08T00:00:52.133Z,0.00
2022-08-08T00:00:52.539Z,0.00
2022-08-08T00:01:52.631Z,0.00
2022-08-08T00:02:33.094Z,0.00
2022-08-08T00:03:31.440Z,0.00
2022-08-08T00:04:27.785Z,0.00
2022-08-08T00:05:43.820Z,0.00
2022-08-08T00:06:28.288Z,0.00
2022-08-08T00:07:25.805Z,0.00
2022-08-08T00:08:24.786Z,0.00
2022-08-08T00:09:24.778Z,0.00
2022-08-08T00:10:28.616Z,0.00
2022-08-08T00:11:24.751Z,0.00
2022-08-08T00:12:24.859Z,0.00
2022-08-08T00:14:15.290Z,0.00
2022-08-08T00:14:48.674Z,0.00
2022-08-08T00:15:55.925Z,0.00
2022-08-08T00:16:25.698Z,0.00
2022-08-08T00:17:24.696Z,0.00
2022-08-08T00:18:24.675Z,0.00
2022-08-08T00:19:24.663Z,0.00
2022-08-08T00:20:24.655Z,0.00
2022-08-08T00:21:24.690Z,0.00
2022-08-08T00:22:24.643Z,0.00
2022-08-08T00:23:28.352Z,0.00
2022-08-08T00:24:29.860Z,0.00
2022-08-08T00:25:24.614Z,0.00
2022-08-08T00:26:29.024Z,0.00
2022-08-08T00:27:24.589Z,0.00
2022-08-08T00:28:35.665Z,0.00
2022-08-08T00:29:45.031Z,0.00
2022-08-08T00:30:25.550Z,0.00
2022-08-08T00:32:29.297Z,0.00
2022-08-08T00:32:35.420Z,0.00
2022-08-08T00:33:25.514Z,0.00
2022-08-08T00:34:26.894Z,0.00
2022-08-08T00:35:24.492Z,0.00
2022-08-08T00:36:25.773Z,0.00
2022-08-08T00:37:47.332Z,0.00
2022-08-08T00:38:32.106Z,0.00
2022-08-08T00:39:36.228Z,0.00
2022-08-08T00:41:07.126Z,0.00
2022-08-08T00:41:54.827Z,0.00
2022-08-08T00:42:32.949Z,0.00
2022-08-08T00:43:25.456Z,0.00
2022-08-08T00:44:25.395Z,0.00
2022-08-08T00:45:27.169Z,0.00
2022-08-08T00:46:25.370Z,0.00
2022-08-08T00:47:24.371Z,0.00
2022-08-08T00:48:29.900Z,0.00
2022-08-08T00:49:27.340Z,0.00
2022-08-08T00:50:25.328Z,0.00
2022-08-08T00:51:24.320Z,0.00
2022-08-08T00:52:39.354Z,0.00
2022-08-08T00:53:25.307Z,0.00
2022-08-08T00:54:25.170Z,0.00
2022-08-08T00:55:52.617Z,0.00
2022-08-08T00:56:29.485Z,0.00
2022-08-08T00:57:29.553Z,0.00
2022-08-08T00:58:30.630Z,0.00
2022-08-08T00:59:44.551Z,0.00
2022-08-08T01:00:25.819Z,0.00
2022-08-08T01:01:37.436Z,0.00
2022-08-08T01:03:57.271Z,0.00
2022-08-08T01:04:01.734Z,0.00
2022-08-08T01:04:29.620Z,0.00
2022-08-08T01:05:42.274Z,0.00
2022-08-08T01:06:27.707Z,0.00
2022-08-08T01:07:24.156Z,0.00
2022-08-08T01:08:28.904Z,0.00
2022-08-08T01:09:35.669Z,0.00
2022-08-08T01:10:25.111Z,0.00
2022-08-08T01:11:24.102Z,0.00
2022-08-08T01:12:29.494Z,0.00
2022-08-08T01:13:43.660Z,0.00
2022-08-08T01:14:53.297Z,0.00
2022-08-08T01:15:37.327Z,0.00
2022-08-08T01:16:27.758Z,0.00
2022-08-08T01:17:25.256Z,0.00
2022-08-08T01:18:53.843Z,0.00
2022-08-08T01:19:41.795Z,0.00
2022-08-08T01:20:25.004Z,0.00
2022-08-08T01:22:01.830Z,0.00
2022-08-08T01:22:35.408Z,0.00
2022-08-08T01:24:02.661Z,0.00
2022-08-08T01:24:24.960Z,0.00
2022-08-08T01:25:40.201Z,0.00
2022-08-08T01:26:24.948Z,0.00
2022-08-08T01:27:32.797Z,0.00
2022-08-08T01:28:27.973Z,0.00
2022-08-08T01:29:24.368Z,0.00
2022-08-08T01:30:23.904Z,0.00
2022-08-08T01:32:06.354Z,0.00
2022-08-08T01:32:25.768Z,0.00
2022-08-08T01:33:27.866Z,0.00
2022-08-08T01:34:28.969Z,0.00
2022-08-08T01:35:29.574Z,0.00
2022-08-08T01:36:24.847Z,0.00
2022-08-08T01:37:56.606Z,0.00
2022-08-08T01:38:24.811Z,0.00
2022-08-08T01:39:27.877Z,0.00
2022-08-08T01:40:23.791Z,0.00
2022-08-08T01:41:23.794Z,0.00
2022-08-08T01:42:36.124Z,0.00
2022-08-08T01:43:24.756Z,0.00
2022-08-08T01:44:26.452Z,0.00
2022-08-08T01:45:23.734Z,0.00
2022-08-08T01:46:23.751Z,0.00
2022-08-08T01:48:14.005Z,0.00
2022-08-08T01:48:30.540Z,0.00
2022-08-08T01:49:38.464Z,0.00
2022-08-08T01:50:26.494Z,0.00
2022-08-08T01:51:32.052Z,0.00
2022-08-08T01:52:32.578Z,0.00
2022-08-08T01:54:57.618Z,0.00
2022-08-08T01:55:46.330Z,0.00
2022-08-08T01:56:29.128Z,0.00
2022-08-08T01:56:31.197Z,0.00
2022-08-08T01:57:24.603Z,0.00
2022-08-08T01:58:38.771Z,0.00
2022-08-08T01:59:24.581Z,0.00
2022-08-08T02:00:24.576Z,0.00
2022-08-08T02:01:23.644Z,0.00
2022-08-08T02:02:34.100Z,0.00
2022-08-08T02:03:57.375Z,0.00
2022-08-08T02:04:24.533Z,0.00
2022-08-08T02:05:23.578Z,0.00
2022-08-08T02:06:31.877Z,0.00
2022-08-08T02:07:24.499Z,0.00
2022-08-08T02:08:23.502Z,0.00
2022-08-08T02:10:01.274Z,0.00
2022-08-08T02:10:29.585Z,0.00
2022-08-08T02:11:59.972Z,0.00
2022-08-08T02:12:24.444Z,0.00
2022-08-08T02:13:54.834Z,0.00
2022-08-08T02:14:24.424Z,0.00
2022-08-08T02:15:23.411Z,0.00
2022-08-08T02:16:23.457Z,0.00
2022-08-08T02:17:23.388Z,0.00
2022-08-08T02:18:23.379Z,0.00
2022-08-08T02:19:41.761Z,0.00
2022-08-08T02:21:01.339Z,0.00
2022-08-08T02:21:24.359Z,0.00
2022-08-08T02:22:28.446Z,0.00
2022-08-08T02:23:28.933Z,0.00
2022-08-08T02:24:24.312Z,0.00
2022-08-08T02:25:23.302Z,0.00
2022-08-08T02:26:24.308Z,0.00
2022-08-08T02:27:23.281Z,0.00
2022-08-08T02:28:25.947Z,0.00
2022-08-08T02:29:24.261Z,0.00
2022-08-08T02:30:25.394Z,0.00
2022-08-08T02:31:58.034Z,0.00
2022-08-08T02:32:32.118Z,0.00
2022-08-08T02:33:24.213Z,0.00
2022-08-08T02:34:27.518Z,0.00
2022-08-08T02:35:24.193Z,0.00
2022-08-08T02:36:23.765Z,0.00
2022-08-08T02:37:53.358Z,0.00
2022-08-08T02:38:25.268Z,0.00
2022-08-08T02:39:41.963Z,0.00
2022-08-08T02:40:24.176Z,0.00
2022-08-08T02:42:03.741Z,0.00
2022-08-08T02:42:36.208Z,0.00
2022-08-08T02:44:37.710Z,0.00
2022-08-08T02:44:39.288Z,0.00
2022-08-08T02:45:24.085Z,0.00
2022-08-08T02:46:23.091Z,0.00
2022-08-08T02:47:23.062Z,0.00
2022-08-08T02:48:25.865Z,0.00
2022-08-08T02:49:38.254Z,0.00
2022-08-08T02:50:24.030Z,0.00
2022-08-08T02:51:30.058Z,0.00
2022-08-08T02:52:35.217Z,0.00
2022-08-08T02:53:24.295Z,0.00
2022-08-08T02:54:22.988Z,0.00
2022-08-08T02:55:22.976Z,0.00
2022-08-08T02:56:22.977Z,0.00
2022-08-08T02:57:23.997Z,0.00
2022-08-08T02:58:22.944Z,0.00
2022-08-08T02:59:37.059Z,0.00
2022-08-08T03:00:31.633Z,0.00
2022-08-08T03:01:23.951Z,0.00
2022-08-08T03:02:28.532Z,0.00
2022-08-08T03:05:02.764Z,4.00
2022-08-08T03:05:05.456Z,4.00
2022-08-08T03:05:23.865Z,0.00
2022-08-08T03:06:24.131Z,0.00
2022-08-08T03:07:23.856Z,4.00
2022-08-08T03:08:22.844Z,4.00
2022-08-08T03:09:22.827Z,4.00
2022-08-08T03:10:32.823Z,4.00
2022-08-08T03:11:25.669Z,4.00
2022-08-08T03:12:36.375Z,4.00
2022-08-08T03:15:53.596Z,4.00
2022-08-08T03:15:57.395Z,8.00
2022-08-08T03:16:00.904Z,4.00
2022-08-08T03:16:35.277Z,8.00
2022-08-08T03:17:25.780Z,8.00
2022-08-08T03:18:31.079Z,12.00
2022-08-08T03:19:23.725Z,12.00
2022-08-08T03:20:22.717Z,16.00
2022-08-08T03:21:26.841Z,16.00
2022-08-08T03:22:48.317Z,20.00
2022-08-08T03:23:23.865Z,20.00
2022-08-08T03:24:23.663Z,20.00
2022-08-08T03:25:22.649Z,28.00
2022-08-08T03:26:23.640Z,32.00
2022-08-08T03:27:27.135Z,32.00
2022-08-08T03:28:22.627Z,36.00
2022-08-08T03:29:26.919Z,40.00
2022-08-08T03:30:23.595Z,44.00
2022-08-08T03:31:25.669Z,48.00
2022-08-08T03:32:22.662Z,52.00
2022-08-08T03:33:56.233Z,56.00
2022-08-08T03:34:23.553Z,64.00
2022-08-08T03:35:22.556Z,68.00
2022-08-08T03:36:27.706Z,76.00
2022-08-08T03:38:00.238Z,84.00
2022-08-08T03:38:58.560Z,88.00
2022-08-08T03:39:23.545Z,96.00
2022-08-08T03:40:29.182Z,104.00
2022-08-08T03:42:12.303Z,112.00
2022-08-08T03:42:38.507Z,124.00
2022-08-08T03:43:23.453Z,132.00
2022-08-08T03:44:25.784Z,144.00
2022-08-08T03:46:07.146Z,152.00
2022-08-08T03:46:25.511Z,164.00
2022-08-08T03:47:23.414Z,172.00
2022-08-08T03:49:08.954Z,188.00
2022-08-08T03:49:56.906Z,196.00
2022-08-08T03:50:24.708Z,208.00
2022-08-08T03:51:40.230Z,220.00
2022-08-08T03:52:23.362Z,228.00
2022-08-08T03:53:37.848Z,240.00
2022-08-08T03:54:41.113Z,252.00
2022-08-08T03:55:57.914Z,260.00
2022-08-08T03:56:31.643Z,272.00
2022-08-08T03:58:34.293Z,276.00
2022-08-08T03:58:34.408Z,272.00
2022-08-08T03:59:23.391Z,272.00
2022-08-08T04:00:22.270Z,280.00
2022-08-08T04:01:24.065Z,288.00
2022-08-08T04:02:33.367Z,300.00
2022-08-08T04:03:26.086Z,320.00
2022-08-08T04:04:30.749Z,336.00
2022-08-08T04:05:28.518Z,340.00
2022-08-08T04:06:23.215Z,348.00
2022-08-08T04:07:22.195Z,360.00
2022-08-08T04:08:33.073Z,372.00
2022-08-08T04:09:23.172Z,388.00
2022-08-08T04:10:22.184Z,396.00
2022-08-08T04:11:23.405Z,404.00
2022-08-08T04:12:22.763Z,412.00
2022-08-08T04:13:22.131Z,428.00
2022-08-08T04:14:34.056Z,436.00
2022-08-08T04:15:23.106Z,452.00
2022-08-08T04:16:23.111Z,468.00
2022-08-08T04:17:58.090Z,480.00
2022-08-08T04:18:23.073Z,496.00
2022-08-08T04:19:24.930Z,508.00
2022-08-08T04:20:28.801Z,528.00
2022-08-08T04:21:23.541Z,544.00
2022-08-08T04:22:24.059Z,556.00
2022-08-08T04:23:22.022Z,564.00
2022-08-08T04:24:29.648Z,576.00
2022-08-08T04:25:22.996Z,600.00
2022-08-08T04:26:25.948Z,616.00
2022-08-08T04:28:01.437Z,632.00
2022-08-08T04:28:37.359Z,652.00
2022-08-08T04:29:22.952Z,672.00
2022-08-08T04:30:21.948Z,700.00
2022-08-08T04:31:56.770Z,736.00
2022-08-08T04:32:30.322Z,772.00
2022-08-08T04:33:22.911Z,860.00
2022-08-08T04:34:21.901Z,848.00
2022-08-08T04:35:22.889Z,840.00
2022-08-08T04:36:21.886Z,856.00
2022-08-08T04:37:31.659Z,876.00
2022-08-08T04:38:22.857Z,892.00
2022-08-08T04:39:48.021Z,944.00
2022-08-08T04:40:24.091Z,1720.00
2022-08-08T04:41:21.915Z,2432.00
2022-08-08T04:42:21.813Z,1444.00
2022-08-08T04:43:22.188Z,1324.00
2022-08-08T04:44:21.790Z,1840.00
2022-08-08T04:45:22.779Z,2080.00
2022-08-08T04:46:21.784Z,1448.00
2022-08-08T04:47:21.757Z,1332.00
2022-08-08T04:48:22.349Z,1384.00
2022-08-08T04:49:21.733Z,1380.00
2022-08-08T04:50:23.794Z,1428.00
2022-08-08T04:51:27.991Z,1660.00
2022-08-08T04:52:25.374Z,1740.00
2022-08-08T04:54:26.893Z,1872.00
2022-08-08T04:54:38.207Z,2468.00
2022-08-08T04:55:22.669Z,2684.00
2022-08-08T04:56:21.675Z,2584.00
2022-08-08T04:57:21.649Z,2512.00
2022-08-08T04:58:21.700Z,2440.00
2022-08-08T04:59:24.282Z,2332.00
2022-08-08T05:00:22.618Z,2124.00
2022-08-08T05:01:21.652Z,2136.00
2022-08-08T05:02:28.372Z,2076.00
2022-08-08T05:04:10.326Z,1932.00
2022-08-08T05:04:22.573Z,1808.00
2022-08-08T05:05:45.121Z,1816.00
2022-08-08T05:06:25.689Z,1824.00
2022-08-08T05:07:22.566Z,1832.00
2022-08-08T05:08:21.531Z,1856.00
2022-08-08T05:09:22.521Z,1868.00
2022-08-08T05:10:21.508Z,1900.00
2022-08-08T05:11:24.388Z,1900.00
2022-08-08T05:12:21.488Z,1912.00
2022-08-08T05:13:22.476Z,1920.00
2022-08-08T05:14:21.469Z,1940.00
2022-08-08T05:15:22.424Z,2004.00
2022-08-08T05:16:48.324Z,1996.00
2022-08-08T05:17:22.433Z,1992.00
2022-08-08T05:18:21.425Z,1996.00
2022-08-08T05:20:12.462Z,2040.00
2022-08-08T05:20:24.618Z,2092.00
2022-08-08T05:21:21.403Z,2420.00
2022-08-08T05:22:21.403Z,2688.00
2022-08-08T05:23:21.369Z,2420.00
2022-08-08T05:24:26.037Z,2204.00
2022-08-08T05:25:21.579Z,2148.00
2022-08-08T05:26:21.359Z,2172.00
2022-08-08T05:27:22.324Z,2140.00
2022-08-08T05:28:56.820Z,2192.00
2022-08-08T05:29:22.303Z,2204.00
2022-08-08T05:30:21.318Z,2228.00
2022-08-08T05:32:04.571Z,2224.00
2022-08-08T05:32:27.000Z,2260.00
2022-08-08T05:33:22.259Z,2456.00
2022-08-08T05:34:21.252Z,2524.00
2022-08-08T05:35:23.399Z,2980.00
2022-08-08T05:36:25.163Z,3140.00
2022-08-08T05:37:21.218Z,2864.00
2022-08-08T05:38:31.316Z,2452.00
2022-08-08T05:39:22.221Z,2368.00
2022-08-08T05:40:21.549Z,2540.00
2022-08-08T05:41:23.305Z,2580.00
2022-08-08T05:42:25.855Z,2508.00
2022-08-08T05:43:39.605Z,2576.00
2022-08-08T05:44:22.142Z,2872.00
2022-08-08T05:45:25.112Z,2992.00
2022-08-08T05:46:22.156Z,2708.00
2022-08-08T05:47:21.406Z,2616.00
2022-08-08T05:48:28.358Z,2544.00
2022-08-08T05:49:22.093Z,2560.00
2022-08-08T05:50:21.081Z,2548.00
2022-08-08T05:51:21.078Z,2580.00
2022-08-08T05:52:31.786Z,2552.00
2022-08-08T05:53:55.271Z,2560.00
2022-08-08T05:54:28.036Z,2580.00
2022-08-08T05:55:22.030Z,2572.00
2022-08-08T05:56:21.058Z,2604.00
2022-08-08T05:58:04.789Z,2632.00
2022-08-08T05:58:27.520Z,2636.00
2022-08-08T05:59:59.975Z,2636.00
2022-08-08T06:00:23.641Z,2676.00
2022-08-08T06:01:56.190Z,2700.00
2022-08-08T06:02:21.962Z,2724.00
2022-08-08T06:03:25.405Z,2760.00
2022-08-08T06:04:22.992Z,2792.00
2022-08-08T06:05:34.644Z,2820.00
2022-08-08T06:06:23.424Z,2848.00
2022-08-08T06:07:21.903Z,2872.00
2022-08-08T06:08:28.751Z,2892.00
2022-08-08T06:09:59.842Z,2932.00
2022-08-08T06:10:24.569Z,2960.00
2022-08-08T06:11:20.861Z,2976.00
2022-08-08T06:12:30.362Z,3036.00
2022-08-08T06:13:23.271Z,3092.00
2022-08-08T06:14:20.824Z,3180.00
2022-08-08T06:15:20.813Z,3188.00
2022-08-08T06:16:25.036Z,3244.00
2022-08-08T06:17:21.831Z,3300.00
2022-08-08T06:18:22.401Z,3380.00
2022-08-08T06:19:24.049Z,3404.00
2022-08-08T06:20:21.154Z,3408.00
2022-08-08T06:21:32.467Z,3452.00
2022-08-08T06:22:37.016Z,3580.00
2022-08-08T06:23:26.281Z,4096.00
2022-08-08T06:24:23.093Z,4340.00
2022-08-08T06:25:33.416Z,3896.00
2022-08-08T06:26:43.597Z,3656.00
2022-08-08T06:27:21.679Z,3656.00
2022-08-08T06:28:20.687Z,3632.00
2022-08-08T06:29:48.885Z,3648.00
2022-08-08T06:30:28.615Z,3672.00
2022-08-08T06:31:21.657Z,3712.00
2022-08-08T06:32:21.629Z,3716.00
2022-08-08T06:33:36.678Z,3740.00
2022-08-08T06:34:26.585Z,3736.00
2022-08-08T06:36:06.137Z,3852.00
2022-08-08T06:36:21.596Z,3900.00
2022-08-08T06:37:24.756Z,4204.00
2022-08-08T06:38:21.565Z,4896.00
2022-08-08T06:39:21.905Z,5556.00
2022-08-08T06:40:20.555Z,4648.00
2022-08-08T06:41:21.554Z,4132.00
2022-08-08T06:42:20.545Z,3944.00
2022-08-08T06:43:20.550Z,3920.00
2022-08-08T06:44:25.110Z,3956.00
2022-08-08T06:45:20.491Z,4036.00
2022-08-08T06:46:23.798Z,4220.00
2022-08-08T06:47:33.494Z,7440.00
2022-08-08T06:48:21.643Z,8248.00
2022-08-08T06:49:54.819Z,5844.00
2022-08-08T06:50:32.461Z,5036.00
2022-08-08T06:51:22.279Z,4188.00
2022-08-08T06:52:20.421Z,4160.00
2022-08-08T06:53:20.905Z,4332.00
2022-08-08T06:54:20.424Z,4412.00
2022-08-08T06:55:20.410Z,5264.00
2022-08-08T06:56:23.118Z,5348.00
2022-08-08T06:57:20.371Z,6936.00
2022-08-08T06:58:20.391Z,8500.00
2022-08-08T06:59:20.352Z,10368.00
2022-08-08T07:00:30.078Z,10724.00
2022-08-08T07:02:17.389Z,10408.00
2022-08-08T07:02:28.727Z,10596.00
2022-08-08T07:03:52.579Z,10720.00
2022-08-08T07:04:41.497Z,10908.00
2022-08-08T07:05:24.629Z,10720.00
2022-08-08T07:06:20.278Z,10912.00
2022-08-08T07:07:20.287Z,10636.00
2022-08-08T07:08:20.257Z,9920.00
2022-08-08T07:09:20.928Z,9532.00
2022-08-08T07:10:20.238Z,9560.00
2022-08-08T07:11:22.214Z,9548.00
2022-08-08T07:12:20.216Z,9248.00
2022-08-08T07:13:22.947Z,9060.00
2022-08-08T07:14:21.176Z,8912.00
2022-08-08T07:15:41.180Z,8752.00
2022-08-08T07:16:21.163Z,8372.00
2022-08-08T07:17:21.147Z,7348.00
2022-08-08T07:18:36.789Z,6072.00
2022-08-08T07:19:21.125Z,5984.00
2022-08-08T07:20:20.162Z,5568.00
2022-08-08T07:21:21.117Z,6256.00
2022-08-08T07:22:20.173Z,8520.00
2022-08-08T07:23:23.574Z,9168.00
2022-08-08T07:24:20.209Z,9232.00
2022-08-08T07:25:20.079Z,9292.00
2022-08-08T07:26:28.838Z,9424.00
2022-08-08T07:27:21.042Z,9572.00
2022-08-08T07:28:21.039Z,9428.00
2022-08-08T07:29:20.429Z,8636.00
2022-08-08T07:30:25.383Z,7972.00
2022-08-08T07:31:21.011Z,6284.00
2022-08-08T07:32:22.311Z,6772.00
2022-08-08T07:33:19.993Z,8140.00
2022-08-08T07:34:31.279Z,12812.00
2022-08-08T07:35:20.976Z,14752.00
2022-08-08T07:36:19.988Z,16320.00
2022-08-08T07:37:20.317Z,17952.00
2022-08-08T07:38:21.122Z,20032.00
2022-08-08T07:39:22.539Z,20224.00
2022-08-08T07:40:29.855Z,20160.00
2022-08-08T07:41:24.967Z,20320.00
2022-08-08T07:42:19.904Z,20864.00
2022-08-08T07:43:23.225Z,22112.00
2022-08-08T07:44:40.767Z,22592.00
2022-08-08T07:45:20.873Z,22560.00
2022-08-08T07:46:30.146Z,23552.00
2022-08-08T07:47:29.015Z,24640.00
2022-08-08T07:48:20.826Z,25056.00
2022-08-08T07:49:19.823Z,25472.00
2022-08-08T07:50:23.306Z,26400.00
2022-08-08T07:51:23.756Z,26944.00
2022-08-08T07:52:23.352Z,25824.00
2022-08-08T07:53:52.095Z,25280.00
2022-08-08T07:54:26.775Z,27200.00
2022-08-08T07:55:20.769Z,27328.00
2022-08-08T07:56:36.065Z,27360.00
2022-08-08T07:57:21.137Z,28000.00
2022-08-08T07:58:19.737Z,27616.00
2022-08-08T07:59:20.122Z,27648.00
2022-08-08T08:00:19.721Z,28160.00
2022-08-08T08:01:19.873Z,28064.00
2022-08-08T08:02:32.927Z,27392.00
2022-08-08T08:03:24.039Z,28256.00
2022-08-08T08:04:20.665Z,29152.00
2022-08-08T08:05:19.677Z,29568.00
2022-08-08T08:06:19.652Z,29696.00
2022-08-08T08:07:22.664Z,27712.00
2022-08-08T08:08:20.765Z,26176.00
2022-08-08T08:09:19.619Z,25856.00
2022-08-08T08:10:30.015Z,27168.00
2022-08-08T08:11:21.195Z,27872.00
2022-08-08T08:12:36.842Z,28608.00
2022-08-08T08:13:25.679Z,28416.00
2022-08-08T08:14:20.597Z,29536.00
2022-08-08T08:15:23.208Z,29536.00
2022-08-08T08:16:19.732Z,29536.00
2022-08-08T08:17:28.808Z,30720.00
2022-08-08T08:18:31.692Z,30816.00
2022-08-08T08:19:21.260Z,30336.00
2022-08-08T08:20:19.524Z,29984.00
2022-08-08T08:21:19.504Z,28832.00
2022-08-08T08:22:31.214Z,27616.00
2022-08-08T08:23:20.491Z,28032.00
2022-08-08T08:24:20.495Z,27776.00
2022-08-08T08:25:43.177Z,28416.00
2022-08-08T08:26:27.503Z,29216.00
2022-08-08T08:27:20.455Z,31040.00
2022-08-08T08:28:23.807Z,32256.00
2022-08-08T08:29:19.703Z,31584.00
2022-08-08T08:30:19.473Z,30528.00
2022-08-08T08:31:19.426Z,30816.00
2022-08-08T08:32:31.805Z,31584.00
2022-08-08T08:33:20.398Z,32416.00
2022-08-08T08:34:21.237Z,32448.00
2022-08-08T08:35:21.372Z,32704.00
2022-08-08T08:36:21.959Z,32256.00
2022-08-08T08:37:20.796Z,31232.00
2022-08-08T08:38:19.849Z,30784.00
2022-08-08T08:39:22.909Z,31936.00
2022-08-08T08:40:19.458Z,32352.00
2022-08-08T08:41:20.062Z,31744.00
2022-08-08T08:42:32.143Z,31520.00
2022-08-08T08:43:20.295Z,31296.00
2022-08-08T08:44:20.281Z,29056.00
2022-08-08T08:45:21.914Z,29600.00
2022-08-08T08:46:19.265Z,30400.00
2022-08-08T08:47:20.370Z,29568.00
2022-08-08T08:48:19.902Z,30016.00
2022-08-08T08:49:19.236Z,32832.00
2022-08-08T08:50:33.975Z,33056.00
2022-08-08T08:51:20.222Z,33024.00
2022-08-08T08:52:20.570Z,34464.00
2022-08-08T08:53:54.245Z,34240.00
2022-08-08T08:54:20.237Z,32672.00
2022-08-08T08:55:20.340Z,31744.00
2022-08-08T08:56:24.143Z,32640.00
2022-08-08T08:57:20.162Z,34368.00
2022-08-08T08:58:19.151Z,33856.00
2022-08-08T08:59:23.647Z,33088.00
2022-08-08T09:00:20.315Z,33472.00
2022-08-08T09:01:19.223Z,34688.00
2022-08-08T09:02:19.197Z,34592.00
2022-08-08T09:03:19.488Z,34208.00
2022-08-08T09:04:31.878Z,34304.00
2022-08-08T09:05:49.304Z,34848.00
2022-08-08T09:06:28.507Z,35072.00
2022-08-08T09:07:20.080Z,36736.00
2022-08-08T09:08:21.004Z,37152.00
2022-08-08T09:09:35.314Z,36544.00
2022-08-08T09:10:21.313Z,38976.00
2022-08-08T09:11:19.029Z,41536.00
2022-08-08T09:12:19.767Z,41376.00
2022-08-08T09:13:25.294Z,39040.00
2022-08-08T09:14:19.999Z,39328.00
2022-08-08T09:15:41.418Z,41408.00
2022-08-08T09:16:19.988Z,42016.00
2022-08-08T09:17:23.627Z,40608.00
2022-08-08T09:18:19.977Z,41056.00
2022-08-08T09:19:33.937Z,40352.00
2022-08-08T09:21:56.134Z,41600.00
2022-08-08T09:22:01.477Z,43104.00
2022-08-08T09:22:27.085Z,43488.00
2022-08-08T09:23:25.845Z,44224.00
2022-08-08T09:24:19.908Z,45792.00
2022-08-08T09:25:18.918Z,46336.00
2022-08-08T09:26:18.890Z,45568.00
2022-08-08T09:27:20.919Z,46016.00
2022-08-08T09:28:37.875Z,43520.00
2022-08-08T09:29:22.661Z,44800.00
2022-08-08T09:30:20.046Z,42720.00
2022-08-08T09:31:18.869Z,42944.00
2022-08-08T09:32:19.486Z,9492.00
2022-08-08T09:34:14.774Z,6564.00
2022-08-08T09:34:32.626Z,7128.00
2022-08-08T09:35:19.815Z,8480.00
2022-08-08T09:36:19.797Z,40448.00
2022-08-08T09:37:46.232Z,42816.00
2022-08-08T09:38:19.776Z,41984.00
2022-08-08T09:39:18.946Z,42176.00
2022-08-08T09:40:18.927Z,41088.00
2022-08-08T09:41:18.803Z,6772.00
2022-08-08T09:42:22.265Z,6620.00
2022-08-08T09:43:23.891Z,8580.00
2022-08-08T09:44:34.004Z,11528.00
2022-08-08T09:45:54.123Z,32352.00
2022-08-08T09:46:25.835Z,47296.00
2022-08-08T09:48:03.045Z,29600.00
2022-08-08T09:48:26.153Z,16472.00
2022-08-08T09:49:42.884Z,41312.00
2022-08-08T09:50:19.852Z,48384.00
2022-08-08T09:51:18.653Z,46816.00
2022-08-08T09:52:56.146Z,44960.00
2022-08-08T09:53:31.917Z,46400.00
2022-08-08T09:54:36.878Z,46496.00
2022-08-08T09:55:51.747Z,47008.00
2022-08-08T09:56:25.009Z,47488.00
2022-08-08T09:57:19.597Z,46048.00
2022-08-08T09:58:25.782Z,46240.00
2022-08-08T09:59:48.212Z,7700.00
2022-08-08T10:00:50.213Z,41600.00
2022-08-08T10:01:58.271Z,38784.00
2022-08-08T10:02:19.547Z,36800.00
2022-08-08T10:03:19.846Z,9016.00
2022-08-08T10:04:38.748Z,8304.00
2022-08-08T10:05:25.124Z,7636.00
2022-08-08T10:06:19.517Z,6948.00
2022-08-08T10:07:19.499Z,8208.00
2022-08-08T10:08:18.488Z,44832.00
2022-08-08T10:09:18.482Z,50240.00
2022-08-08T10:10:18.485Z,48416.00
2022-08-08T10:12:26.351Z,18496.00
2022-08-08T10:12:28.026Z,39424.00
2022-08-08T10:13:19.445Z,27136.00
2022-08-08T10:14:28.124Z,9056.00
2022-08-08T10:15:19.441Z,15580.00
2022-08-08T10:16:18.422Z,46368.00
2022-08-08T10:17:56.834Z,18272.00
2022-08-08T10:18:25.507Z,29920.00
2022-08-08T10:19:19.383Z,49792.00
2022-08-08T10:20:18.389Z,49120.00
2022-08-08T10:21:26.162Z,49536.00
2022-08-08T10:22:19.355Z,48800.00
2022-08-08T10:23:41.212Z,48096.00
2022-08-08T10:24:29.948Z,47744.00
2022-08-08T10:25:19.338Z,47808.00
2022-08-08T10:26:30.120Z,50304.00
2022-08-08T10:27:19.316Z,52352.00
2022-08-08T10:28:18.296Z,51488.00
2022-08-08T10:29:21.136Z,47136.00
2022-08-08T10:30:59.696Z,33952.00
2022-08-08T10:31:19.268Z,13696.00
2022-08-08T10:32:19.257Z,7552.00
2022-08-08T10:33:18.259Z,7228.00
2022-08-08T10:34:21.033Z,7032.00
2022-08-08T10:36:01.890Z,6940.00
2022-08-08T10:36:22.190Z,7020.00
2022-08-08T10:37:18.204Z,7280.00
2022-08-08T10:38:18.199Z,7464.00
2022-08-08T10:39:18.260Z,7424.00
2022-08-08T10:40:19.891Z,7252.00
2022-08-08T10:41:20.062Z,7172.00
2022-08-08T10:42:18.160Z,7096.00
2022-08-08T10:43:18.161Z,7136.00
2022-08-08T10:44:18.164Z,6764.00
2022-08-08T10:45:18.126Z,6420.00
2022-08-08T10:46:27.640Z,6404.00
2022-08-08T10:47:21.145Z,6248.00
2022-08-08T10:48:18.098Z,6164.00
2022-08-08T10:50:00.035Z,6312.00
2022-08-08T10:50:19.077Z,6152.00
2022-08-08T10:51:18.066Z,6516.00
2022-08-08T10:52:18.060Z,7052.00
2022-08-08T10:53:19.111Z,6916.00
2022-08-08T10:54:19.048Z,6760.00
2022-08-08T10:55:39.818Z,6188.00
2022-08-08T10:56:27.827Z,5936.00
2022-08-08T10:57:41.369Z,5768.00
2022-08-08T10:58:19.000Z,5680.00
2022-08-08T10:59:17.993Z,6220.00
2022-08-08T11:00:18.004Z,6628.00
2022-08-08T11:01:18.057Z,7120.00
2022-08-08T11:02:17.984Z,7016.00
2022-08-08T11:03:17.953Z,7044.00
2022-08-08T11:04:17.944Z,6988.00
2022-08-08T11:05:18.935Z,6948.00
2022-08-08T11:06:17.913Z,6844.00
2022-08-08T11:07:40.618Z,6548.00
2022-08-08T11:08:30.730Z,6264.00
2022-08-08T11:09:19.775Z,6204.00
2022-08-08T11:10:19.858Z,6100.00
2022-08-08T11:12:00.106Z,6196.00
2022-08-08T11:12:18.850Z,6236.00
2022-08-08T11:13:33.708Z,6312.00
2022-08-08T11:14:20.829Z,6540.00
2022-08-08T11:15:18.818Z,6644.00
2022-08-08T11:16:32.260Z,6432.00
2022-08-08T11:17:58.806Z,6052.00
2022-08-08T11:18:18.788Z,5372.00
2022-08-08T11:19:18.082Z,5344.00
2022-08-08T11:20:21.445Z,5632.00
2022-08-08T11:21:19.762Z,5204.00
2022-08-08T11:22:17.752Z,5280.00
2022-08-08T11:23:17.765Z,5368.00
2022-08-08T11:24:17.740Z,5220.00
2022-08-08T11:25:17.805Z,5780.00
2022-08-08T11:26:18.889Z,5552.00
2022-08-08T11:27:23.084Z,5688.00
2022-08-08T11:28:18.910Z,5720.00
2022-08-08T11:29:17.683Z,5672.00
2022-08-08T11:30:24.622Z,5656.00
2022-08-08T11:31:18.650Z,5584.00
2022-08-08T11:32:17.643Z,5584.00
2022-08-08T11:33:17.827Z,5688.00
2022-08-08T11:34:24.082Z,5908.00
2022-08-08T11:35:24.880Z,5736.00
2022-08-08T11:36:18.625Z,5356.00
2022-08-08T11:37:17.666Z,5400.00
2022-08-08T11:38:38.906Z,5444.00
2022-08-08T11:39:20.008Z,5620.00
2022-08-08T11:40:22.357Z,5568.00
2022-08-08T11:41:18.584Z,5392.00
2022-08-08T11:42:17.549Z,5224.00
2022-08-08T11:43:17.525Z,4916.00
2022-08-08T11:44:17.528Z,4844.00
2022-08-08T11:45:18.627Z,4936.00
2022-08-08T11:46:19.674Z,4888.00
2022-08-08T11:47:17.604Z,4852.00
2022-08-08T11:48:20.612Z,4804.00
2022-08-08T11:49:17.496Z,4848.00
2022-08-08T11:50:23.133Z,4844.00
2022-08-08T11:51:30.467Z,4856.00
2022-08-08T11:52:27.406Z,4892.00
2022-08-08T11:53:18.423Z,5048.00
2022-08-08T11:54:31.390Z,4968.00
2022-08-08T11:55:18.402Z,4692.00
2022-08-08T11:56:17.395Z,4688.00
2022-08-08T11:57:17.651Z,4788.00
2022-08-08T11:58:18.370Z,4912.00
2022-08-08T11:59:17.372Z,5288.00
2022-08-08T12:00:18.443Z,4780.00
2022-08-08T12:01:17.452Z,4660.00
2022-08-08T12:02:31.692Z,4564.00
2022-08-08T12:03:21.288Z,4440.00
2022-08-08T12:04:17.318Z,4300.00
2022-08-08T12:05:17.297Z,4232.00
2022-08-08T12:06:17.286Z,4152.00
2022-08-08T12:07:18.013Z,4160.00
2022-08-08T12:08:17.268Z,4200.00
2022-08-08T12:09:19.034Z,4096.00
2022-08-08T12:10:17.815Z,4052.00
2022-08-08T12:11:18.305Z,4124.00
2022-08-08T12:12:18.228Z,4104.00
2022-08-08T12:13:18.210Z,4260.00
2022-08-08T12:14:17.221Z,4328.00
2022-08-08T12:15:17.193Z,4564.00
2022-08-08T12:16:17.186Z,4588.00
2022-08-08T12:17:17.172Z,4540.00
2022-08-08T12:18:21.033Z,4500.00
2022-08-08T12:19:31.148Z,4652.00
2022-08-08T12:20:18.138Z,4860.00